Time;durP1;ratioP1;P1;durP2;ratioP2;P2;SDS_P1;SDS_P2;PMS_P1;PMS_P2;Temp;Humidity;BMP_temperature;BMP_pressure;BME280_temperature;BME280_humidity;BME280_pressure;Samples;Min_cycle;Max_cycle;Signal;HPM_P1;HPM_P2
2021/09/04 00:01:03;;;;;;;11.98;3.20;;;;;16.70;100766.00;;;;5046646;28;20718;-81
2021/09/04 00:03:30;;;;;;;8.40;2.45;;;;;16.70;100747.00;;;;5048463;28;20226;-80
2021/09/04 00:05:56;;;;;;;11.10;2.40;;;;;16.70;100767.00;;;;5048771;28;20040;-82
2021/09/04 00:08:23;;;;;;;15.30;2.60;;;;;16.60;100765.00;;;;5047339;28;20039;-82
2021/09/04 00:10:49;;;;;;;14.73;2.50;;;;;16.70;100779.00;;;;5048927;28;20029;-82
2021/09/04 00:13:16;;;;;;;11.82;2.90;;;;;16.70;100773.00;;;;5047315;28;20056;-81
2021/09/04 00:15:43;;;;;;;16.58;2.70;;;;;16.60;100788.00;;;;5048585;28;20025;-81
2021/09/04 00:18:09;;;;;;;13.88;3.13;;;;;16.60;100796.00;;;;5049013;28;20033;-80
2021/09/04 00:20:36;;;;;;;10.15;2.50;;;;;16.60;100780.00;;;;5049311;28;20021;-80
2021/09/04 00:23:02;;;;;;;13.48;2.38;;;;;16.60;100767.00;;;;5048548;28;20032;-80
2021/09/04 00:25:29;;;;;;;14.60;2.35;;;;;16.60;100747.00;;;;5049620;28;20161;-79
2021/09/04 00:27:56;;;;;;;9.88;2.60;;;;;16.60;100787.00;;;;5048530;28;20024;-80
2021/09/04 00:30:22;;;;;;;11.00;2.40;;;;;16.60;100788.00;;;;5048619;28;20032;-81
2021/09/04 00:32:49;;;;;;;9.60;2.53;;;;;16.60;100775.00;;;;5048359;28;20396;-81
2021/09/04 00:35:15;;;;;;;13.30;2.28;;;;;16.60;100781.00;;;;5048318;28;20403;-81
2021/09/04 00:37:42;;;;;;;11.13;2.85;;;;;16.50;100795.00;;;;5047908;28;20032;-81
2021/09/04 00:40:09;;;;;;;10.75;2.97;;;;;16.50;100775.00;;;;5048664;28;20071;-82
2021/09/04 00:42:36;;;;;;;11.20;2.15;;;;;16.50;100788.00;;;;5048274;28;20779;-81
2021/09/04 00:45:03;;;;;;;14.70;3.33;;;;;16.50;100797.00;;;;5047834;28;20025;-80
2021/09/04 00:47:30;;;;;;;18.15;2.72;;;;;16.50;100800.00;;;;5047907;28;20040;-80
2021/09/04 00:49:56;;;;;;;14.48;2.85;;;;;16.50;100767.00;;;;5046865;28;20025;-80
2021/09/04 00:52:23;;;;;;;12.68;2.63;;;;;16.40;100805.00;;;;5048228;28;20041;-81
2021/09/04 00:54:50;;;;;;;17.10;3.10;;;;;16.40;100804.00;;;;5047694;28;20124;-81
2021/09/04 00:57:17;;;;;;;14.70;2.40;;;;;16.40;100803.00;;;;5047361;28;20067;-81
2021/09/04 00:59:44;;;;;;;8.48;2.53;;;;;16.40;100803.00;;;;5052860;28;20029;-81
2021/09/04 01:02:10;;;;;;;8.85;2.42;;;;;16.40;100790.00;;;;5050833;28;20033;-79
2021/09/04 01:04:37;;;;;;;11.75;2.55;;;;;16.40;100795.00;;;;5048661;28;20037;-82
2021/09/04 01:07:04;;;;;;;12.98;2.50;;;;;16.30;100811.00;;;;5047289;28;20048;-79
2021/09/04 01:09:30;;;;;;;7.93;2.08;;;;;16.30;100788.00;;;;5046176;28;20104;-81
2021/09/04 01:11:57;;;;;;;10.07;2.72;;;;;16.30;100812.00;;;;5046182;28;20123;-80
2021/09/04 01:14:23;;;;;;;13.75;2.47;;;;;16.30;100797.00;;;;5047567;28;20396;-80
2021/09/04 01:16:50;;;;;;;11.63;2.92;;;;;16.30;100782.00;;;;5047703;28;20037;-80
2021/09/04 01:19:17;;;;;;;10.40;2.85;;;;;16.30;100811.00;;;;5047869;28;20040;-79
2021/09/04 01:21:43;;;;;;;8.93;2.78;;;;;16.30;100789.00;;;;5047022;28;20025;-80
2021/09/04 01:24:10;;;;;;;10.48;2.97;;;;;16.30;100790.00;;;;5045911;28;20052;-80
2021/09/04 01:26:36;;;;;;;11.07;2.80;;;;;16.30;100810.00;;;;5044755;28;20451;-80
2021/09/04 01:29:03;;;;;;;13.38;3.40;;;;;16.30;100797.00;;;;5047017;28;20025;-80
2021/09/04 01:31:30;;;;;;;13.88;3.00;;;;;16.30;100795.00;;;;5047982;28;20061;-81
2021/09/04 01:33:56;;;;;;;9.73;2.80;;;;;16.30;100791.00;;;;5047488;28;20035;-80
2021/09/04 01:36:30;;;;;;;12.02;2.75;;;;;16.30;100797.00;;;;5046262;28;20079;-81
2021/09/04 01:38:58;;;;;;;9.50;2.83;;;;;16.30;100769.00;;;;5047288;28;20461;-80
2021/09/04 01:41:24;;;;;;;13.43;2.80;;;;;16.20;100798.00;;;;5047468;28;20104;-80
2021/09/04 01:43:52;;;;;;;14.68;3.53;;;;;16.20;100771.00;;;;5047206;28;20116;-80
2021/09/04 01:46:19;;;;;;;14.20;2.97;;;;;16.20;100802.00;;;;5047362;28;20059;-80
2021/09/04 01:48:46;;;;;;;12.80;2.50;;;;;16.10;100799.00;;;;5045738;28;20060;-80
2021/09/04 01:51:13;;;;;;;13.18;3.25;;;;;16.20;100774.00;;;;5047155;28;20029;-80
2021/09/04 01:53:41;;;;;;;10.18;2.70;;;;;16.20;100771.00;;;;5046906;28;20044;-80
2021/09/04 01:56:09;;;;;;;12.98;2.60;;;;;16.10;100772.00;;;;5047365;28;20040;-80
2021/09/04 01:58:35;;;;;;;17.55;3.47;;;;;16.10;100805.00;;;;5047313;28;20130;-80
2021/09/04 02:01:03;;;;;;;10.38;2.63;;;;;16.10;100765.00;;;;5047172;28;20483;-80
2021/09/04 02:03:29;;;;;;;15.48;2.63;;;;;16.10;100784.00;;;;5047364;28;20400;-80
2021/09/04 02:05:56;;;;;;;11.75;2.45;;;;;16.00;100776.00;;;;5046904;28;20033;-80
2021/09/04 02:08:22;;;;;;;9.43;2.95;;;;;16.00;100789.00;;;;5046755;28;20052;-80
2021/09/04 02:10:49;;;;;;;8.70;2.00;;;;;16.00;100808.00;;;;5047456;28;20056;-81
2021/09/04 02:13:15;;;;;;;12.70;1.85;;;;;16.00;100769.00;;;;5046673;28;20040;-80
2021/09/04 02:15:42;;;;;;;9.75;2.15;;;;;16.00;100788.00;;;;5047223;28;20496;-80
2021/09/04 02:18:09;;;;;;;17.25;2.08;;;;;16.00;100766.00;;;;5046561;28;20033;-80
2021/09/04 02:20:35;;;;;;;10.38;2.70;;;;;15.90;100781.00;;;;5045272;28;20439;-80
2021/09/04 02:23:02;;;;;;;8.05;1.63;;;;;15.90;100779.00;;;;5046905;28;20110;-82
2021/09/04 02:25:28;;;;;;;11.32;1.98;;;;;15.90;100781.00;;;;5046847;28;20032;-80
2021/09/04 02:27:55;;;;;;;8.02;1.58;;;;;15.90;100774.00;;;;5046552;28;20396;-80
2021/09/04 02:30:21;;;;;;;5.72;1.50;;;;;15.80;100761.00;;;;5045243;28;20033;-81
2021/09/04 02:32:48;;;;;;;7.18;1.52;;;;;15.80;100763.00;;;;5046183;28;20039;-81
2021/09/04 02:35:15;;;;;;;6.05;1.30;;;;;15.80;100777.00;;;;5046765;28;20029;-79
2021/09/04 02:37:41;;;;;;;5.13;1.08;;;;;15.80;100773.00;;;;5046928;28;20395;-80
2021/09/04 02:40:08;;;;;;;4.60;1.33;;;;;15.80;100749.00;;;;5046214;28;20468;-81
2021/09/04 02:42:35;;;;;;;7.18;1.00;;;;;15.70;100756.00;;;;5046878;28;20044;-80
2021/09/04 02:45:02;;;;;;;4.70;1.48;;;;;15.70;100760.00;;;;5046564;28;20104;-82
2021/09/04 02:47:29;;;;;;;4.00;1.00;;;;;15.70;100768.00;;;;5046160;28;20033;-80
2021/09/04 02:49:55;;;;;;;7.03;1.70;;;;;15.70;100787.00;;;;5046489;28;21121;-80
2021/09/04 02:52:22;;;;;;;4.88;1.27;;;;;15.60;100773.00;;;;5045606;28;20037;-80
2021/09/04 02:54:48;;;;;;;3.92;1.15;;;;;15.60;100780.00;;;;5046301;28;20052;-80
2021/09/04 02:57:15;;;;;;;4.57;1.25;;;;;15.60;100769.00;;;;5046186;28;20119;-80
2021/09/04 02:59:41;;;;;;;4.35;1.17;;;;;15.60;100755.00;;;;5046744;28;20124;-80
2021/09/04 03:02:08;;;;;;;5.75;1.75;;;;;15.60;100775.00;;;;5046725;28;20155;-80
2021/09/04 03:04:34;;;;;;;3.42;1.20;;;;;15.60;100763.00;;;;5046588;28;20458;-80
2021/09/04 03:07:01;;;;;;;4.65;1.05;;;;;15.60;100748.00;;;;5046611;28;20041;-80
2021/09/04 03:09:28;;;;;;;4.60;1.20;;;;;15.60;100782.00;;;;5046021;28;20152;-80
2021/09/04 03:11:54;;;;;;;4.65;1.13;;;;;15.60;100774.00;;;;5046409;28;20146;-80
2021/09/04 03:14:22;;;;;;;5.60;1.10;;;;;15.60;100762.00;;;;5046223;28;20025;-80
2021/09/04 03:16:48;;;;;;;4.60;1.10;;;;;15.60;100760.00;;;;5045893;28;20040;-80
2021/09/04 03:19:15;;;;;;;3.92;0.75;;;;;15.50;100789.00;;;;5046439;28;20473;-80
2021/09/04 03:21:41;;;;;;;4.80;1.08;;;;;15.50;100758.00;;;;5046082;28;20036;-80
2021/09/04 03:24:08;;;;;;;3.90;1.17;;;;;15.50;100775.00;;;;5046093;28;20029;-83
2021/09/04 03:26:34;;;;;;;5.70;0.70;;;;;15.50;100779.00;;;;5046470;28;20036;-80
2021/09/04 03:29:01;;;;;;;3.47;0.80;;;;;15.50;100764.00;;;;5047360;28;20029;-80
2021/09/04 03:31:27;;;;;;;3.22;0.90;;;;;15.50;100764.00;;;;5047981;28;20035;-80
2021/09/04 03:33:54;;;;;;;6.28;1.27;;;;;15.50;100779.00;;;;5049142;28;20040;-80
2021/09/04 03:36:21;;;;;;;4.40;1.13;;;;;15.50;100775.00;;;;5049638;28;20083;-80
2021/09/04 03:38:47;;;;;;;2.28;0.75;;;;;15.50;100746.00;;;;5049534;28;20036;-80
2021/09/04 03:41:14;;;;;;;3.05;1.00;;;;;15.40;100751.00;;;;5049538;28;20025;-81
2021/09/04 03:43:40;;;;;;;6.25;1.02;;;;;15.40;100763.00;;;;5049367;28;20037;-81
2021/09/04 03:46:07;;;;;;;2.05;0.80;;;;;15.40;100752.00;;;;5049599;28;20090;-81
2021/09/04 03:48:34;;;;;;;2.85;0.90;;;;;15.40;100742.00;;;;5050041;28;20040;-81
2021/09/04 03:51:00;;;;;;;4.40;1.20;;;;;15.40;100753.00;;;;5048150;28;20043;-81
2021/09/04 03:53:27;;;;;;;3.47;0.73;;;;;15.40;100753.00;;;;5047520;28;20037;-80
2021/09/04 03:55:53;;;;;;;1.90;0.80;;;;;15.40;100719.00;;;;5049512;28;20037;-79
2021/09/04 03:58:20;;;;;;;2.95;1.00;;;;;15.40;100726.00;;;;5048870;28;20114;-81
2021/09/04 04:00:46;;;;;;;2.20;0.63;;;;;15.40;100729.00;;;;5049389;28;20056;-80
2021/09/04 04:03:14;;;;;;;3.15;0.70;;;;;15.30;100709.00;;;;5048731;28;20507;-82
2021/09/04 04:05:40;;;;;;;1.98;0.70;;;;;15.30;100709.00;;;;5049903;28;20102;-80
2021/09/04 04:08:07;;;;;;;5.45;0.80;;;;;15.30;100709.00;;;;5048329;28;20502;-79
2021/09/04 04:10:33;;;;;;;2.38;0.70;;;;;15.30;100705.00;;;;5049029;28;20036;-79
2021/09/04 04:13:00;;;;;;;3.25;0.77;;;;;15.30;100738.00;;;;5047808;28;20075;-80
2021/09/04 04:15:27;;;;;;;2.55;0.85;;;;;15.30;100700.00;;;;5049476;28;20025;-79
2021/09/04 04:17:53;;;;;;;1.58;0.68;;;;;15.30;100700.00;;;;5049223;28;20036;-80
2021/09/04 04:20:20;;;;;;;2.03;0.55;;;;;15.30;100704.00;;;;5048948;28;20079;-80
2021/09/04 04:22:46;;;;;;;1.05;0.52;;;;;15.30;100694.00;;;;5048947;28;20029;-80
2021/09/04 04:25:13;;;;;;;4.15;0.68;;;;;15.20;100719.00;;;;5048501;28;20430;-80
2021/09/04 04:27:39;;;;;;;3.03;0.70;;;;;15.20;100715.00;;;;5048794;28;20025;-80
2021/09/04 04:30:07;;;;;;;2.80;0.60;;;;;15.20;100700.00;;;;5048956;28;20059;-80
2021/09/04 04:32:34;;;;;;;2.42;0.57;;;;;15.10;100715.00;;;;5048038;28;20032;-79
2021/09/04 04:35:00;;;;;;;1.92;0.68;;;;;15.20;100709.00;;;;5049014;28;20037;-79
2021/09/04 04:37:27;;;;;;;3.40;0.80;;;;;15.20;100720.00;;;;5049040;28;20061;-79
2021/09/04 04:39:53;;;;;;;3.25;0.82;;;;;15.20;100729.00;;;;5048021;28;20036;-79
2021/09/04 04:42:20;;;;;;;3.60;0.65;;;;;15.20;100720.00;;;;5047945;28;20029;-79
2021/09/04 04:44:46;;;;;;;3.05;0.70;;;;;15.20;100721.00;;;;5048362;28;20426;-80
2021/09/04 04:47:13;;;;;;;4.50;0.90;;;;;15.20;100694.00;;;;5048321;28;20033;-80
2021/09/04 04:49:39;;;;;;;4.35;0.90;;;;;15.20;100691.00;;;;5048512;28;20037;-80
2021/09/04 04:52:06;;;;;;;5.00;0.95;;;;;15.20;100721.00;;;;5047778;28;20029;-80
2021/09/04 04:54:33;;;;;;;7.03;0.77;;;;;15.20;100690.00;;;;5047243;28;20111;-80
2021/09/04 04:57:00;;;;;;;3.15;0.80;;;;;15.20;100710.00;;;;5047918;28;20446;-79
2021/09/04 04:59:26;;;;;;;6.18;0.80;;;;;15.20;100708.00;;;;5048627;28;20025;-79
2021/09/04 05:01:53;;;;;;;2.78;0.80;;;;;15.20;100705.00;;;;5048550;28;20021;-80
2021/09/04 05:04:19;;;;;;;3.67;1.15;;;;;15.20;100713.00;;;;5047721;28;20029;-80
2021/09/04 05:06:46;;;;;;;2.50;0.63;;;;;15.20;100680.00;;;;5048103;28;20416;-79
2021/09/04 05:09:12;;;;;;;7.30;0.75;;;;;15.20;100678.00;;;;5046623;28;20037;-80
2021/09/04 05:11:39;;;;;;;3.45;0.73;;;;;15.20;100686.00;;;;5048053;28;20028;-79
2021/09/04 05:14:05;;;;;;;3.53;0.90;;;;;15.20;100682.00;;;;5047726;28;20044;-79
2021/09/04 05:16:32;;;;;;;6.43;0.75;;;;;15.10;100674.00;;;;5048256;28;20562;-80
2021/09/04 05:18:58;;;;;;;4.15;0.98;;;;;15.10;100689.00;;;;5047540;28;20052;-79
2021/09/04 05:21:25;;;;;;;1.77;0.70;;;;;15.10;100692.00;;;;5047492;28;20029;-79
2021/09/04 05:23:51;;;;;;;2.90;0.70;;;;;15.10;100687.00;;;;5047676;28;20017;-79
2021/09/04 05:26:18;;;;;;;2.53;0.70;;;;;15.10;100664.00;;;;5048148;28;20029;-80
2021/09/04 05:28:44;;;;;;;3.60;0.73;;;;;15.10;100692.00;;;;5047387;28;20025;-80
2021/09/04 05:31:11;;;;;;;7.47;0.90;;;;;15.10;100672.00;;;;5046842;28;20076;-80
2021/09/04 05:33:37;;;;;;;4.18;0.68;;;;;15.10;100685.00;;;;5047004;28;20508;-80
2021/09/04 05:36:04;;;;;;;2.30;0.55;;;;;15.10;100661.00;;;;5046918;28;20074;-80
2021/09/04 05:38:31;;;;;;;2.45;0.60;;;;;15.10;100692.00;;;;5047100;28;20033;-80
2021/09/04 05:40:57;;;;;;;3.17;0.73;;;;;15.10;100659.00;;;;5046821;28;20025;-80
2021/09/04 05:43:24;;;;;;;3.80;0.63;;;;;15.10;100669.00;;;;5046066;28;20025;-80
2021/09/04 05:45:50;;;;;;;3.08;0.70;;;;;15.10;100669.00;;;;5046825;28;20052;-80
2021/09/04 05:48:17;;;;;;;4.53;0.73;;;;;15.10;100663.00;;;;5046853;28;20388;-80
2021/09/04 05:50:43;;;;;;;3.08;0.60;;;;;15.10;100688.00;;;;5046935;28;20037;-80
2021/09/04 05:53:10;;;;;;;4.53;0.93;;;;;15.10;100657.00;;;;5047266;28;20082;-80
2021/09/04 05:55:37;;;;;;;4.28;0.63;;;;;15.10;100664.00;;;;5046168;28;20025;-80
2021/09/04 05:58:03;;;;;;;2.45;0.63;;;;;15.00;100679.00;;;;5046593;28;20044;-80
2021/09/04 06:00:30;;;;;;;2.70;0.50;;;;;15.00;100661.00;;;;5046914;28;20029;-81
2021/09/04 06:02:57;;;;;;;2.97;0.60;;;;;15.00;100685.00;;;;5046860;28;20086;-81
2021/09/04 06:05:23;;;;;;;5.10;0.88;;;;;15.00;100680.00;;;;5046615;28;20552;-81
2021/09/04 06:07:50;;;;;;;5.05;0.70;;;;;15.00;100677.00;;;;5046414;28;20437;-81
2021/09/04 06:10:16;;;;;;;1.63;0.80;;;;;15.10;100658.00;;;;5046881;28;20152;-81
2021/09/04 06:12:43;;;;;;;3.97;0.50;;;;;15.10;100671.00;;;;5047040;28;20039;-80
2021/09/04 06:15:10;;;;;;;3.47;0.70;;;;;15.00;100658.00;;;;5046742;28;20556;-80
2021/09/04 06:17:36;;;;;;;4.03;0.77;;;;;15.10;100657.00;;;;5045111;28;20123;-80
2021/09/04 06:20:03;;;;;;;1.27;0.70;;;;;15.00;100647.00;;;;5046359;28;20063;-81
2021/09/04 06:22:30;;;;;;;4.00;0.70;;;;;15.00;100657.00;;;;5046406;28;20065;-80
2021/09/04 06:24:56;;;;;;;1.38;0.60;;;;;15.00;100651.00;;;;5046527;28;20074;-80
2021/09/04 06:27:23;;;;;;;4.85;0.75;;;;;15.00;100634.00;;;;5045107;28;20041;-79
2021/09/04 06:29:49;;;;;;;3.05;0.65;;;;;15.00;100654.00;;;;5045776;28;20706;-79
2021/09/04 06:32:16;;;;;;;2.67;0.70;;;;;15.00;100654.00;;;;5044957;28;20082;-79
2021/09/04 06:34:43;;;;;;;2.78;0.80;;;;;15.00;100671.00;;;;5045390;28;20507;-81
2021/09/04 06:37:10;;;;;;;2.90;0.60;;;;;15.00;100635.00;;;;5046340;28;20484;-79
2021/09/04 06:39:37;;;;;;;2.38;0.88;;;;;15.00;100644.00;;;;5046693;28;20108;-79
2021/09/04 06:42:04;;;;;;;2.10;0.70;;;;;15.00;100620.00;;;;5047195;28;20033;-79
2021/09/04 06:44:30;;;;;;;1.27;0.43;;;;;15.00;100617.00;;;;5046017;28;20571;-78
2021/09/04 06:46:57;;;;;;;2.17;0.68;;;;;15.00;100621.00;;;;5046542;28;20111;-78
2021/09/04 06:49:23;;;;;;;1.48;0.68;;;;;14.90;100629.00;;;;5047094;28;20029;-79
2021/09/04 06:51:50;;;;;;;3.15;0.73;;;;;14.90;100615.00;;;;5046110;28;20036;-79
2021/09/04 06:54:17;;;;;;;2.83;0.70;;;;;14.90;100614.00;;;;5046540;28;20049;-79
2021/09/04 06:56:43;;;;;;;1.67;0.60;;;;;14.90;100602.00;;;;5046448;28;20056;-79
2021/09/04 06:59:10;;;;;;;4.13;0.90;;;;;14.90;100602.00;;;;5046407;28;20029;-79
2021/09/04 07:01:37;;;;;;;4.30;0.55;;;;;14.90;100621.00;;;;5045983;28;20365;-79
2021/09/04 07:04:04;;;;;;;3.90;0.50;;;;;14.80;100600.00;;;;5048235;28;20029;-79
2021/09/04 07:06:30;;;;;;;1.90;0.65;;;;;14.80;100582.00;;;;5050500;28;20507;-79
2021/09/04 07:08:57;;;;;;;0.80;0.45;;;;;14.80;100624.00;;;;5049919;28;20864;-79
2021/09/04 07:11:24;;;;;;;3.05;0.85;;;;;14.80;100616.00;;;;5050357;28;20039;-79
2021/09/04 07:13:51;;;;;;;2.80;0.85;;;;;14.80;100586.00;;;;5049819;28;20105;-79
2021/09/04 07:16:17;;;;;;;3.38;0.60;;;;;14.80;100620.00;;;;5049863;28;20130;-79
2021/09/04 07:18:44;;;;;;;1.52;0.40;;;;;14.80;100595.00;;;;5048556;28;20033;-80
2021/09/04 07:21:10;;;;;;;6.18;0.70;;;;;14.80;100604.00;;;;5049902;28;20789;-79
2021/09/04 07:23:37;;;;;;;3.28;0.90;;;;;14.80;100595.00;;;;5050210;28;20108;-79
2021/09/04 07:26:04;;;;;;;5.47;0.77;;;;;14.80;100631.00;;;;5049738;28;20660;-79
2021/09/04 07:28:30;;;;;;;6.38;0.85;;;;;14.80;100602.00;;;;5049843;28;20065;-79
2021/09/04 07:30:59;;;;;;;5.07;0.63;;;;;14.80;100619.00;;;;5048487;28;20418;-79
2021/09/04 07:33:25;;;;;;;4.22;0.77;;;;;14.80;100599.00;;;;5049537;28;20028;-79
2021/09/04 07:35:52;;;;;;;2.25;0.73;;;;;14.80;100622.00;;;;5048375;28;20116;-79
2021/09/04 07:38:19;;;;;;;2.45;0.82;;;;;14.80;100625.00;;;;5049928;28;20036;-79
2021/09/04 07:40:46;;;;;;;5.88;1.10;;;;;14.80;100610.00;;;;5049420;28;20083;-79
2021/09/04 07:43:13;;;;;;;3.30;0.70;;;;;14.80;100632.00;;;;5049457;28;20021;-79
2021/09/04 07:45:42;;;;;;;3.97;0.70;;;;;14.80;100613.00;;;;5047826;28;20082;-79
2021/09/04 07:48:09;;;;;;;1.92;0.70;;;;;14.80;100613.00;;;;5047055;28;20033;-79
2021/09/04 07:50:36;;;;;;;4.95;0.70;;;;;14.80;100608.00;;;;5046722;28;20025;-79
2021/09/04 07:53:04;;;;;;;1.60;0.80;;;;;14.80;100617.00;;;;5047002;28;20519;-79
2021/09/04 07:55:31;;;;;;;1.90;0.52;;;;;14.80;100609.00;;;;5045152;28;20052;-79
2021/09/04 07:57:57;;;;;;;2.20;0.57;;;;;14.80;100628.00;;;;5046702;28;20074;-79
2021/09/04 08:00:24;;;;;;;1.27;0.63;;;;;14.80;100608.00;;;;5047987;28;20029;-79
2021/09/04 08:02:50;;;;;;;6.13;0.90;;;;;14.80;100631.00;;;;5049585;28;20071;-79
2021/09/04 08:05:17;;;;;;;2.60;0.75;;;;;14.80;100628.00;;;;5049236;28;20028;-79
2021/09/04 08:07:43;;;;;;;3.53;0.90;;;;;14.90;100613.00;;;;5048715;28;20086;-79
2021/09/04 08:10:10;;;;;;;3.45;0.77;;;;;14.80;100602.00;;;;5049061;28;20108;-78
2021/09/04 08:12:37;;;;;;;2.22;0.60;;;;;14.80;100602.00;;;;5048501;28;20051;-79
2021/09/04 08:15:04;;;;;;;4.07;0.80;;;;;14.80;100611.00;;;;5048273;28;20492;-78
2021/09/04 08:17:31;;;;;;;3.10;0.63;;;;;14.80;100624.00;;;;5048992;28;20028;-79
2021/09/04 08:19:57;;;;;;;1.73;0.55;;;;;14.70;100581.00;;;;5049023;28;20029;-79
2021/09/04 08:22:24;;;;;;;3.38;0.85;;;;;14.70;100610.00;;;;5048850;28;20118;-79
2021/09/04 08:24:50;;;;;;;3.05;0.90;;;;;14.70;100600.00;;;;5048490;28;20095;-79
2021/09/04 08:27:17;;;;;;;0.98;0.50;;;;;14.80;100599.00;;;;5048888;28;20103;-79
2021/09/04 08:29:43;;;;;;;2.72;0.90;;;;;14.70;100628.00;;;;5049439;28;20074;-80
2021/09/04 08:32:10;;;;;;;2.20;0.70;;;;;14.80;100598.00;;;;5049316;28;20408;-79
2021/09/04 08:34:36;;;;;;;2.47;0.52;;;;;14.80;100610.00;;;;5048655;28;20025;-79
2021/09/04 08:37:04;;;;;;;7.68;1.00;;;;;14.80;100600.00;;;;5047004;28;20032;-79
2021/09/04 08:39:31;;;;;;;2.63;0.80;;;;;14.80;100617.00;;;;5048234;28;20096;-79
2021/09/04 08:41:57;;;;;;;2.75;0.60;;;;;14.80;100610.00;;;;5048871;28;20087;-79
2021/09/04 08:44:24;;;;;;;1.35;0.52;;;;;14.80;100622.00;;;;5048761;28;20029;-78
2021/09/04 08:46:52;;;;;;;1.95;0.70;;;;;14.80;100588.00;;;;5049062;28;20144;-78
2021/09/04 08:49:18;;;;;;;2.40;0.65;;;;;14.80;100602.00;;;;5048421;28;20166;-80
2021/09/04 08:51:46;;;;;;;5.80;0.73;;;;;14.80;100605.00;;;;5048423;28;20048;-80
2021/09/04 08:54:12;;;;;;;4.15;0.93;;;;;14.80;100603.00;;;;5048679;28;20076;-79
2021/09/04 08:56:39;;;;;;;3.88;0.70;;;;;14.80;100624.00;;;;5048677;28;20064;-81
2021/09/04 08:59:05;;;;;;;1.83;0.77;;;;;14.80;100618.00;;;;5048085;28;20029;-81
2021/09/04 09:01:32;;;;;;;3.10;0.68;;;;;14.70;100614.00;;;;5048598;28;20475;-81
2021/09/04 09:16:55;;;;;;;2.70;0.90;;;;;14.80;100648.00;;;;5125507;27;20476;-82
2021/09/04 09:19:37;;;;;;;4.37;0.83;;;;;14.90;100637.00;;;;5128063;27;20032;-83
2021/09/04 09:22:14;;;;;;;7.82;1.23;;;;;14.90;100639.00;;;;5126809;27;20277;-83
2021/09/04 09:24:40;;;;;;;1.88;0.85;;;;;14.90;100624.00;;;;5124776;27;20046;-83
2021/09/04 09:27:07;;;;;;;2.35;0.70;;;;;14.80;100618.00;;;;5125414;27;20031;-84
2021/09/04 09:29:35;;;;;;;2.53;0.90;;;;;14.80;100646.00;;;;5125569;27;20035;-80
2021/09/04 09:32:03;;;;;;;3.13;0.70;;;;;14.80;100638.00;;;;5124848;27;20118;-83
2021/09/04 09:34:34;;;;;;;6.25;0.68;;;;;14.70;100614.00;;;;5125466;27;20481;-82
2021/09/04 09:37:02;;;;;;;1.55;0.45;;;;;14.70;100619.00;;;;5124485;27;20084;-82
2021/09/04 09:39:32;;;;;;;4.88;0.80;;;;;14.70;100624.00;;;;5125175;27;20605;-83
2021/09/04 09:42:01;;;;;;;6.10;0.93;;;;;14.70;100646.00;;;;5125886;27;20023;-82
2021/09/04 09:44:29;;;;;;;4.65;0.77;;;;;14.70;100650.00;;;;5124625;27;20784;-82
2021/09/04 09:46:58;;;;;;;8.27;0.90;;;;;14.80;100625.00;;;;5124514;27;20031;-82
2021/09/04 09:49:29;;;;;;;3.50;0.90;;;;;14.90;100651.00;;;;5124203;27;20028;-82
2021/09/04 09:52:02;;;;;;;2.58;0.85;;;;;14.80;100640.00;;;;5125461;27;20035;-82
2021/09/04 09:57:50;;;;;;;;;;;;;14.80;100678.00;;;;5126268;27;20054;-83
2021/09/04 10:00:17;;;;;;;2.70;0.68;;;;;14.80;100657.00;;;;5124743;27;19916;-84
2021/09/04 10:02:46;;;;;;;0.82;0.60;;;;;14.80;100642.00;;;;5124338;27;20023;-84
2021/09/04 10:05:15;;;;;;;6.30;1.00;;;;;14.90;100655.00;;;;5124340;27;20027;-84
2021/09/04 10:07:42;;;;;;;9.07;0.98;;;;;15.00;100667.00;;;;5123882;27;20736;-82
2021/09/04 10:10:09;;;;;;;4.57;1.08;;;;;15.00;100673.00;;;;5125080;27;20035;-81
2021/09/04 10:12:36;;;;;;;3.95;0.80;;;;;15.10;100679.00;;;;5123961;27;20508;-81
2021/09/04 10:15:03;;;;;;;1.58;0.80;;;;;15.10;100684.00;;;;5124945;27;20047;-81
2021/09/04 10:17:29;;;;;;;5.32;1.13;;;;;15.20;100664.00;;;;5112762;27;20054;-81
2021/09/04 10:19:56;;;;;;;6.18;1.00;;;;;15.20;100666.00;;;;5110195;28;20490;-81
2021/09/04 10:22:22;;;;;;;12.18;1.48;;;;;15.20;100667.00;;;;5109746;28;20663;-81
2021/09/04 10:24:53;;;;;;;9.73;2.10;;;;;15.30;100696.00;;;;5109888;28;20744;-79
2021/09/04 10:27:42;;;;;;;4.00;0.80;;;;;15.30;100690.00;;;;5110059;28;20031;-79
2021/09/04 10:30:22;;;;;;;7.60;0.70;;;;;15.40;100692.00;;;;5110118;28;20028;-79
2021/09/04 10:33:00;;;;;;;3.80;1.05;;;;;15.40;100686.00;;;;5109132;28;20023;-79
2021/09/04 10:35:50;;;;;;;11.40;1.95;;;;;15.50;100692.00;;;;5110175;28;20050;-78
2021/09/04 10:38:19;;;;;;;2.55;0.98;;;;;15.50;100701.00;;;;5109588;28;20030;-80
2021/09/04 10:40:51;;;;;;;6.20;1.15;;;;;15.60;100685.00;;;;5109746;28;20494;-79
2021/09/04 10:43:20;;;;;;;4.05;1.05;;;;;15.60;100687.00;;;;5109512;27;20027;-80
2021/09/04 10:45:51;;;;;;;5.32;1.10;;;;;15.60;100706.00;;;;5110282;28;20032;-80
2021/09/04 10:48:21;;;;;;;3.95;1.20;;;;;15.70;100660.00;;;;5109860;28;20024;-80
2021/09/04 10:51:08;;;;;;;4.13;0.70;;;;;15.80;100681.00;;;;5109208;28;20032;-80
2021/09/04 10:53:51;;;;;;;4.70;1.00;;;;;15.90;100700.00;;;;5110059;28;20035;-80
2021/09/04 10:56:29;;;;;;;12.60;1.15;;;;;15.90;100709.00;;;;5109805;28;20032;-79
2021/09/04 10:58:55;;;;;;;6.35;1.38;;;;;16.00;100681.00;;;;5109484;28;20076;-79
2021/09/04 11:01:48;;;;;;;8.07;1.10;;;;;16.00;100736.00;;;;5109373;28;20421;-80
2021/09/04 11:04:15;;;;;;;4.28;1.15;;;;;16.00;100720.00;;;;5109169;28;20040;-80
2021/09/04 11:06:51;;;;;;;9.00;0.95;;;;;16.10;100710.00;;;;5109323;28;20034;-80
2021/09/04 11:09:18;;;;;;;6.93;1.13;;;;;16.10;100708.00;;;;5109186;28;20029;-80
2021/09/04 11:11:44;;;;;;;4.65;1.23;;;;;16.20;100705.00;;;;5109387;28;20072;-80
2021/09/04 11:14:21;;;;;;;11.27;1.38;;;;;16.30;100693.00;;;;5109052;28;20110;-79
2021/09/04 11:16:58;;;;;;;7.53;1.40;;;;;16.40;100706.00;;;;5108863;28;20050;-79
2021/09/04 11:19:33;;;;;;;8.95;1.05;;;;;16.50;100710.00;;;;5109308;28;20085;-80
2021/09/04 11:22:10;;;;;;;5.80;1.00;;;;;16.50;100708.00;;;;5108746;28;20577;-80
2021/09/04 11:24:40;;;;;;;19.67;1.65;;;;;16.60;100704.00;;;;5109148;28;20034;-80
2021/09/04 11:27:14;;;;;;;10.70;1.10;;;;;16.60;100704.00;;;;5108948;28;20103;-81
2021/09/04 11:29:54;;;;;;;12.25;1.40;;;;;16.90;100710.00;;;;5108258;28;20027;-77
2021/09/04 11:32:24;;;;;;;6.00;1.10;;;;;16.90;100663.00;;;;5109668;28;20031;-81
2021/09/04 11:34:59;;;;;;;1.77;0.60;;;;;17.00;100709.00;;;;5108839;28;20485;-82
2021/09/04 11:37:29;;;;;;;4.43;1.00;;;;;17.10;100699.00;;;;5108921;28;20033;-81
2021/09/04 11:40:01;;;;;;;3.30;0.82;;;;;17.00;100700.00;;;;5109230;27;20058;-82
2021/09/04 11:42:30;;;;;;;7.50;1.23;;;;;17.00;100682.00;;;;5108939;28;20110;-81
2021/09/04 11:45:00;;;;;;;7.18;1.23;;;;;17.30;100708.00;;;;5108588;28;20121;-81
2021/09/04 11:47:28;;;;;;;6.47;0.90;;;;;17.40;100686.00;;;;5108612;28;20039;-81
2021/09/04 11:50:07;;;;;;;5.78;1.63;;;;;17.40;100681.00;;;;5107905;28;20119;-80
2021/09/04 11:52:39;;;;;;;1.55;0.60;;;;;17.50;100688.00;;;;5109328;28;20055;-79
2021/09/04 11:55:18;;;;;;;4.13;0.73;;;;;17.50;100689.00;;;;5108751;28;20027;-80
2021/09/04 11:57:47;;;;;;;2.15;0.70;;;;;17.50;100708.00;;;;5108655;28;20063;-82
2021/09/04 12:00:22;;;;;;;0.90;0.50;;;;;17.50;100682.00;;;;5108510;28;20066;-81
2021/09/04 12:02:50;;;;;;;4.28;0.60;;;;;17.40;100719.00;;;;5106658;27;20936;-83
2021/09/04 12:05:19;;;;;;;11.55;1.00;;;;;17.50;100725.00;;;;5106595;28;20118;-81
2021/09/04 12:07:46;;;;;;;5.13;0.80;;;;;17.70;100723.00;;;;5108459;28;20031;-81
2021/09/04 12:10:21;;;;;;;15.98;0.90;;;;;17.80;100694.00;;;;5108277;28;20024;-80
2021/09/04 12:12:54;;;;;;;9.40;0.77;;;;;17.80;100714.00;;;;5107847;28;20510;-81
2021/09/04 12:15:23;;;;;;;6.10;1.20;;;;;17.60;100693.00;;;;5107951;28;20058;-79
2021/09/04 12:17:56;;;;;;;2.58;0.60;;;;;17.60;100687.00;;;;5108199;28;20114;-80
2021/09/04 12:20:34;;;;;;;1.85;0.60;;;;;17.80;100720.00;;;;5107930;28;20819;-82
2021/09/04 12:23:22;;;;;;;4.63;0.88;;;;;17.90;100722.00;;;;5107916;28;20252;-81
2021/09/04 12:26:06;;;;;;;3.80;0.70;;;;;17.70;100719.00;;;;5107528;28;20031;-80